createdAt,value
2017-07-08T00:00:02.840Z,54.42
2017-07-08T00:05:03.170Z,54.23
2017-07-08T00:10:02.661Z,53.94
2017-07-08T00:15:03.229Z,53.66
2017-07-08T00:20:02.794Z,53.36
2017-07-08T00:25:03.315Z,53.17
2017-07-08T00:30:02.784Z,52.98
2017-07-08T00:35:03.288Z,52.6
2017-07-08T00:40:02.673Z,52.48
2017-07-08T00:45:03.145Z,52.28
2017-07-08T00:50:02.652Z,51.71
2017-07-08T00:55:02.875Z,51.23
2017-07-08T01:00:03.384Z,51.04
2017-07-08T01:05:02.827Z,50.84
2017-07-08T01:10:03.397Z,50.65
2017-07-08T01:15:02.794Z,50.43
2017-07-08T01:20:03.371Z,49.96
2017-07-08T01:25:02.902Z,50.15
2017-07-08T01:30:03.177Z,50.15
2017-07-08T01:35:02.694Z,50.05
2017-07-08T01:40:03.027Z,49.84
2017-07-08T01:45:03.529Z,49.65
2017-07-08T01:50:02.723Z,49.65
2017-07-08T01:55:03.203Z,49.65
2017-07-08T02:00:02.718Z,49.65
2017-07-08T02:05:03.337Z,49.55
2017-07-08T02:10:02.933Z,49.45
2017-07-08T02:15:03.555Z,49.45
2017-07-08T02:20:02.965Z,49.36
2017-07-08T02:25:03.466Z,49.36
2017-07-08T02:30:02.881Z,49.26
2017-07-08T02:35:03.313Z,49.07
2017-07-08T02:40:02.644Z,49.07
2017-07-08T02:45:03.095Z,49.07
2017-07-08T02:50:03.343Z,49.07
2017-07-08T02:55:02.781Z,49.05
2017-07-08T03:00:03.251Z,48.95
2017-07-08T03:05:02.599Z,48.95
2017-07-08T03:10:02.901Z,48.95
2017-07-08T03:15:03.377Z,48.95
2017-07-08T03:20:02.660Z,48.95
2017-07-08T03:25:03.012Z,48.95
2017-07-08T03:30:03.345Z,48.95
2017-07-08T03:35:02.769Z,48.85
2017-07-08T03:40:03.286Z,48.85
2017-07-08T03:45:03.570Z,48.75
2017-07-08T03:50:03.277Z,48.85
2017-07-08T03:55:03.560Z,48.95
2017-07-08T04:00:03.251Z,48.95
2017-07-08T04:05:03.587Z,48.95
2017-07-08T04:10:02.949Z,48.75
2017-07-08T04:15:03.272Z,48.75
2017-07-08T04:20:02.752Z,48.59
2017-07-08T04:25:03.143Z,48.59
2017-07-08T04:30:03.422Z,48.4
2017-07-08T04:35:02.827Z,48.11
2017-07-08T04:40:03.350Z,47.92
2017-07-08T04:45:02.740Z,47.85
2017-07-08T04:50:03.195Z,47.66
2017-07-08T04:55:03.465Z,47.66
2017-07-08T05:00:02.683Z,47.56
2017-07-08T05:05:03.053Z,47.46
2017-07-08T05:10:03.480Z,47.39
2017-07-08T05:15:02.728Z,47.2
2017-07-08T05:20:03.053Z,47.2
2017-07-08T05:25:03.473Z,47.41
2017-07-08T05:30:02.911Z,47.32
2017-07-08T05:35:03.202Z,47.32
2017-07-08T05:40:03.659Z,46.94
2017-07-08T05:45:02.871Z,47.15
2017-07-08T05:50:03.267Z,47.72
2017-07-08T05:55:03.533Z,47.92
2017-07-08T06:00:02.748Z,48.13
2017-07-08T06:05:03.370Z,48.52
2017-07-08T06:10:02.748Z,48.33
2017-07-08T06:15:02.964Z,48.54
2017-07-08T06:20:03.452Z,49.33
2017-07-08T06:25:02.844Z,50.3
2017-07-08T06:30:03.324Z,51.45
2017-07-08T06:35:02.883Z,52.44
2017-07-08T06:40:03.141Z,53.98
2017-07-08T06:45:03.390Z,57.06
2017-07-08T06:50:02.608Z,56.51
2017-07-08T06:55:02.836Z,56.8
2017-07-08T07:00:03.045Z,59.01
2017-07-08T07:05:03.443Z,59.2
2017-07-08T07:10:02.867Z,59.62
2017-07-08T07:15:03.374Z,62.45
2017-07-08T07:20:02.878Z,63.6
2017-07-08T07:25:03.300Z,61.1
2017-07-08T07:30:02.727Z,62.38
2017-07-08T07:35:03.213Z,63.82
2017-07-08T07:40:02.725Z,65.98
2017-07-08T07:45:03.020Z,66.46
2017-07-08T07:50:03.386Z,70.97
2017-07-08T07:55:02.665Z,72.94
2017-07-08T08:00:03.076Z,77.28
2017-07-08T08:05:03.397Z,81.77
2017-07-08T08:10:02.771Z,87.32
2017-07-08T08:15:03.056Z,90.07
2017-07-08T08:20:03.416Z,92.49
2017-07-08T08:25:02.733Z,92.58
2017-07-08T08:30:03.158Z,92.2
2017-07-08T08:35:02.725Z,94.27
2017-07-08T08:40:03.182Z,95.1
2017-07-08T08:45:02.669Z,96.16
2017-07-08T08:50:03.131Z,97.13
2017-07-08T08:55:03.397Z,99.07
2017-07-08T09:00:02.860Z,99.99
2017-07-08T09:05:03.371Z,99.75
2017-07-08T09:10:02.609Z,96.59
2017-07-08T09:15:02.925Z,96.78
2017-07-08T09:20:03.436Z,87.62
2017-07-08T09:25:02.850Z,88.84
2017-07-08T09:30:03.101Z,90.39
2017-07-08T09:35:03.718Z,83.7
2017-07-08T09:40:03.262Z,77.75
2017-07-08T09:45:02.802Z,79.66
2017-07-08T09:50:03.308Z,81.87
2017-07-08T09:55:02.603Z,81.28
2017-07-08T10:00:03.038Z,86.41
2017-07-08T10:05:03.427Z,85.39
2017-07-08T10:10:02.757Z,88.07
2017-07-08T10:15:03.096Z,76.84
2017-07-08T10:20:03.548Z,76.12
2017-07-08T10:25:02.922Z,75.93
2017-07-08T10:30:03.332Z,73.07
2017-07-08T10:35:02.635Z,75.15
2017-07-08T10:40:03.125Z,71.32
2017-07-08T10:45:03.476Z,71.65
2017-07-08T10:50:02.748Z,71.11
2017-07-08T10:55:03.291Z,66.14
2017-07-08T11:00:03.008Z,67.87
2017-07-08T11:05:02.556Z,67.12
2017-07-08T11:10:02.926Z,66.96
2017-07-08T11:15:03.429Z,64.61
2017-07-08T11:20:02.910Z,67.19
2017-07-08T11:25:03.327Z,66.99
2017-07-08T11:30:02.736Z,66.79
2017-07-08T11:35:03.055Z,64.83
2017-07-08T11:40:03.553Z,64.57
2017-07-08T11:45:02.844Z,62.43
2017-07-08T11:50:03.126Z,59.89
2017-07-08T11:55:03.370Z,60.23
2017-07-08T12:00:02.814Z,62.65
2017-07-08T12:05:03.169Z,61.79
2017-07-08T12:10:03.495Z,60.83
2017-07-08T12:15:02.793Z,58.43
2017-07-08T12:20:03.308Z,58.86
2017-07-08T12:25:02.630Z,60.15
2017-07-08T12:30:02.942Z,60.71
2017-07-08T12:35:03.280Z,60.58
2017-07-08T12:40:02.807Z,61.6
2017-07-08T12:45:03.205Z,61.57
2017-07-08T12:50:02.609Z,61.28
2017-07-08T12:55:03.153Z,61.32
2017-07-08T13:00:03.433Z,62.23
2017-07-08T13:05:02.745Z,64.19
2017-07-08T13:10:03.120Z,64.58
2017-07-08T13:15:02.607Z,66.24
2017-07-08T13:20:02.900Z,66.89
2017-07-08T13:25:03.295Z,67.77
2017-07-08T13:30:02.571Z,73.25
2017-07-08T13:35:03.083Z,75.4
2017-07-08T13:40:03.531Z,76.47
2017-07-08T13:45:02.761Z,76.15
2017-07-08T13:50:03.240Z,74.61
2017-07-08T13:55:02.737Z,73.93
2017-07-08T14:00:03.168Z,72.56
2017-07-08T14:05:03.542Z,72
2017-07-08T14:10:02.838Z,70.83
2017-07-08T14:15:03.130Z,71.19
2017-07-08T14:20:02.682Z,71.84
2017-07-08T14:25:02.996Z,71.74
2017-07-08T14:30:03.260Z,71.94
2017-07-08T14:35:03.525Z,71.22
2017-07-08T14:40:02.958Z,70.09
2017-07-08T14:45:03.259Z,67.97
2017-07-08T14:50:03.540Z,69.6
2017-07-08T14:55:02.829Z,69.95
2017-07-08T15:00:03.121Z,69.63
2017-07-08T15:05:02.570Z,71.45
2017-07-08T15:10:03.061Z,71.7
2017-07-08T15:15:03.216Z,72.84
2017-07-08T15:20:03.562Z,73.27
2017-07-08T15:25:02.957Z,74.73
2017-07-08T15:30:03.456Z,75.6
2017-07-08T15:35:02.730Z,75.96
2017-07-08T15:40:03.229Z,77.25
2017-07-08T15:45:03.499Z,79.45
2017-07-08T15:50:02.909Z,81.56
2017-07-08T15:55:03.447Z,84.77
2017-07-08T16:00:02.912Z,87.1
2017-07-08T16:05:03.294Z,85.83
2017-07-08T16:10:02.793Z,87.93
2017-07-08T16:15:03.248Z,89.84
2017-07-08T16:20:03.527Z,91.05
2017-07-08T16:25:03.015Z,94.55
2017-07-08T16:30:03.481Z,96.64
2017-07-08T16:35:02.739Z,96.98
2017-07-08T16:40:03.054Z,97.18
2017-07-08T16:45:03.547Z,96.89
2017-07-08T16:50:02.985Z,96.84
2017-07-08T16:55:03.459Z,95.68
2017-07-08T17:00:02.716Z,96.12
2017-07-08T17:05:03.183Z,96.02
2017-07-08T17:10:02.657Z,95.49
2017-07-08T17:15:02.995Z,95.49
2017-07-08T17:20:03.327Z,95.58
2017-07-08T17:25:02.616Z,95.78
2017-07-08T17:30:02.951Z,95.97
2017-07-08T17:35:03.291Z,95.87
2017-07-08T17:40:02.880Z,95.73
2017-07-08T17:45:03.176Z,95.39
2017-07-08T17:50:02.594Z,94.71
2017-07-08T17:55:02.996Z,93.99
2017-07-08T18:00:03.275Z,94.09
2017-07-08T18:05:02.745Z,93.46
2017-07-08T18:10:03.241Z,92.93
2017-07-08T18:15:03.556Z,91.97
2017-07-08T18:20:02.859Z,91.67
2017-07-08T18:25:03.317Z,91.83
2017-07-08T18:30:02.639Z,91.53
2017-07-08T18:35:03.066Z,91.53
2017-07-08T18:40:03.517Z,91.11
2017-07-08T18:45:02.960Z,91.01
2017-07-08T18:50:03.273Z,91.59
2017-07-08T18:55:02.738Z,91.59
2017-07-08T19:00:03.206Z,91.59
2017-07-08T19:05:03.529Z,91.49
2017-07-08T19:10:02.967Z,91.06
2017-07-08T19:15:03.250Z,89.67
2017-07-08T19:20:02.674Z,88.51
2017-07-08T19:25:03.036Z,87.35
2017-07-08T19:30:03.533Z,86.63
2017-07-08T19:35:02.915Z,85.38
2017-07-08T19:40:03.355Z,83.36
2017-07-08T19:45:02.883Z,81.72
2017-07-08T19:50:03.346Z,80.46
2017-07-08T19:55:02.799Z,79.46
2017-07-08T20:00:03.263Z,78.21
2017-07-08T20:05:02.710Z,77.5
2017-07-08T20:10:03.193Z,76.92
2017-07-08T20:15:03.492Z,76.34
2017-07-08T20:20:02.800Z,75.96
2017-07-08T20:25:03.191Z,75.24
2017-07-08T20:30:03.508Z,75.73
2017-07-08T20:35:02.738Z,75.92
2017-07-08T20:40:03.121Z,75.73
2017-07-08T20:45:03.461Z,75.44
2017-07-08T20:50:02.738Z,74.25
2017-07-08T20:55:03.026Z,73.38
2017-07-08T21:00:03.420Z,72.32
2017-07-08T21:05:02.951Z,71.84
2017-07-08T21:10:03.542Z,71.23
2017-07-08T21:15:02.871Z,71.14
2017-07-08T21:20:03.351Z,70.84
2017-07-08T21:25:02.704Z,70.65
2017-07-08T21:30:03.075Z,70.37
2017-07-08T21:35:03.367Z,70.37
2017-07-08T21:40:02.710Z,70.27
2017-07-08T21:45:03.195Z,70.07
2017-07-08T21:50:02.625Z,69.79
2017-07-08T21:55:03.125Z,69.79
2017-07-08T22:00:03.555Z,69.69
2017-07-08T22:05:02.993Z,69.5
2017-07-08T22:10:03.553Z,69.4
2017-07-08T22:15:02.972Z,69.27
2017-07-08T22:20:03.241Z,69.18
2017-07-08T22:25:02.633Z,68.98
2017-07-08T22:30:02.988Z,68.7
2017-07-08T22:35:03.446Z,67.9
2017-07-08T22:40:02.760Z,67.03
2017-07-08T22:45:03.205Z,66.16
2017-07-08T22:50:02.664Z,65.49
2017-07-08T22:55:03.168Z,64.69
2017-07-08T23:00:02.790Z,64.22
2017-07-08T23:05:02.771Z,63.92
2017-07-08T23:10:03.288Z,63.83
2017-07-08T23:15:02.741Z,63.64
2017-07-08T23:20:03.235Z,63.73
2017-07-08T23:25:02.667Z,63.54
2017-07-08T23:30:03.154Z,62.93
2017-07-08T23:35:03.464Z,62.74
2017-07-08T23:40:02.727Z,62.26
2017-07-08T23:45:02.975Z,61.94
2017-07-08T23:50:03.650Z,61.75
2017-07-08T23:55:03.153Z,61.56
